Time;durP1;ratioP1;P1;durP2;ratioP2;P2;SDS_P1;SDS_P2;PMS_P1;PMS_P2;Temp;Humidity;BMP_temperature;BMP_pressure;BME280_temperature;BME280_humidity;BME280_pressure;Samples;Min_cycle;Max_cycle;Signal;HPM_P1;HPM_P2
2024/02/10 00:00:25;;;;;;;4.15;1.20;;;;;;;10.22;94.66;95680.97;1200031;67;4870677;-65
2024/02/10 00:02:59;;;;;;;2.05;1.00;;;;;;;10.18;94.82;95670.34;1223008;75;2932910;-63
2024/02/10 00:05:32;;;;;;;3.70;1.70;;;;;;;10.21;94.65;95663.81;1225136;75;2907121;-64
2024/02/10 00:08:06;;;;;;;4.15;1.33;;;;;;;10.26;93.50;95661.53;1167823;75;5504457;-62
2024/02/10 00:10:39;;;;;;;3.80;1.80;;;;;;;10.32;92.60;95660.22;1190514;75;5443557;-64
2024/02/10 00:13:15;;;;;;;5.95;1.20;;;;;;;10.27;93.25;95652.81;1177940;75;5300649;-64
2024/02/10 00:15:53;;;;;;;4.85;1.20;;;;;;;10.23;93.56;95660.56;1224429;75;2924958;-64
2024/02/10 00:18:28;;;;;;;4.55;1.40;;;;;;;10.23;92.46;95669.50;1208041;75;4098267;-68
2024/02/10 00:21:04;;;;;;;2.00;1.00;;;;;;;10.24;92.56;95668.25;1164027;75;5699175;-63
2024/02/10 00:23:40;;;;;;;2.70;1.20;;;;;;;10.22;92.18;95670.78;1222788;75;2923619;-63
2024/02/10 00:26:14;;;;;;;2.65;0.80;;;;;;;10.21;92.33;95672.03;1223188;75;2917904;-66
2024/02/10 00:28:48;;;;;;;2.10;1.10;;;;;;;10.21;92.14;95669.28;1225035;75;2934328;-63
2024/02/10 00:31:23;;;;;;;1.15;0.80;;;;;;;10.22;92.13;95662.56;1223493;75;2996785;-62
2024/02/10 00:33:57;;;;;;;2.40;1.10;;;;;;;10.23;92.46;95668.78;1209310;75;4206197;-64
2024/02/10 00:36:30;;;;;;;2.40;0.90;;;;;;;10.27;91.46;95665.72;1224056;75;2917141;-65
2024/02/10 00:39:04;;;;;;;2.85;1.10;;;;;;;10.22;91.48;95664.56;1225302;75;2910469;-63
2024/02/10 00:41:38;;;;;;;3.00;0.85;;;;;;;10.13;92.30;95660.22;1210550;75;4065303;-66
2024/02/10 00:44:12;;;;;;;2.15;1.10;;;;;;;10.08;93.01;95654.84;1221748;75;2929062;-64
2024/02/10 00:46:47;;;;;;;1.40;0.80;;;;;;;10.10;92.49;95647.63;1224889;75;2927994;-62
2024/02/10 00:49:24;;;;;;;3.80;1.40;;;;;;;10.12;91.84;95645.06;1186431;75;5673739;-64
2024/02/10 00:51:57;;;;;;;1.70;0.80;;;;;;;10.15;92.42;95648.75;1221237;75;2953857;-63
2024/02/10 00:54:30;;;;;;;2.15;1.00;;;;;;;10.12;92.70;95647.06;1221403;75;2918228;-66
2024/02/10 00:57:10;;;;;;;1.75;0.80;;;;;;;10.06;92.95;95636.25;1225499;75;2924089;-63
2024/02/10 00:59:44;;;;;;;2.40;0.60;;;;;;;9.99;94.10;95629.38;1225602;75;2914154;-64
2024/02/10 01:02:21;;;;;;;1.80;0.80;;;;;;;10.02;94.04;95625.59;1225645;75;2890691;-64
2024/02/10 01:04:55;;;;;;;2.45;0.80;;;;;;;10.03;94.21;95634.56;1225384;75;2909754;-66
2024/02/10 01:07:30;;;;;;;3.50;0.90;;;;;;;9.93;95.26;95636.94;1225177;75;2917983;-62
2024/02/10 01:10:02;;;;;;;4.10;0.95;;;;;;;10.07;94.50;95637.69;1225831;75;2914253;-63
2024/02/10 01:12:36;;;;;;;1.80;0.85;;;;;;;9.98;95.92;95636.13;1225537;75;2914176;-63
2024/02/10 01:15:10;;;;;;;1.60;0.75;;;;;;;9.97;97.94;95636.63;1225358;75;2914413;-63
2024/02/10 01:17:46;;;;;;;1.95;0.90;;;;;;;9.89;99.04;95631.03;1226452;75;2917460;-64
2024/02/10 01:20:19;;;;;;;1.70;0.90;;;;;;;9.95;98.85;95628.94;1224961;75;2917485;-64
2024/02/10 01:22:52;;;;;;;1.00;0.60;;;;;;;10.10;98.09;95628.47;1225569;75;2912696;-62
2024/02/10 01:25:25;;;;;;;3.70;1.20;;;;;;;10.07;98.92;95628.78;1224945;75;2925449;-63
2024/02/10 01:27:58;;;;;;;3.05;0.80;;;;;;;10.13;98.89;95632.16;1225344;75;2920849;-65
2024/02/10 01:30:31;;;;;;;1.45;0.70;;;;;;;10.11;98.87;95624.47;1224941;75;2917713;-64
2024/02/10 01:33:09;;;;;;;1.60;0.80;;;;;;;10.13;98.31;95629.44;1225561;75;2911271;-62
2024/02/10 01:35:42;;;;;;;1.30;1.00;;;;;;;10.08;98.98;95633.72;1225437;75;2912323;-63
2024/02/10 01:38:14;;;;;;;2.20;1.00;;;;;;;10.18;98.33;95634.06;1226118;75;2904576;-64
2024/02/10 01:40:47;;;;;;;2.45;0.90;;;;;;;10.04;98.92;95630.56;1225165;75;2916835;-62
2024/02/10 01:43:20;;;;;;;2.40;0.90;;;;;;;9.98;100.00;95630.66;1225049;67;2919610;-64
2024/02/10 01:45:53;;;;;;;3.10;0.95;;;;;;;10.13;99.51;95634.91;1226014;75;2913064;-62
2024/02/10 01:48:28;;;;;;;2.20;1.15;;;;;;;9.98;100.00;95640.81;1225150;75;2915650;-63
2024/02/10 01:51:02;;;;;;;1.35;1.00;;;;;;;9.99;100.00;95628.66;1224846;75;2924321;-63
2024/02/10 01:53:35;;;;;;;1.15;0.90;;;;;;;10.00;100.00;95630.84;1225381;75;2917390;-65
2024/02/10 01:56:11;;;;;;;3.10;1.15;;;;;;;9.88;100.00;95629.53;1224678;75;2923521;-62
2024/02/10 01:58:47;;;;;;;2.65;0.80;;;;;;;9.85;100.00;95625.13;1226134;75;2911586;-64
2024/02/10 02:01:21;;;;;;;2.60;0.90;;;;;;;9.83;100.00;95635.84;1224475;75;2927642;-63
2024/02/10 02:03:57;;;;;;;3.90;0.95;;;;;;;9.74;100.00;95622.56;1225560;75;2918005;-63
2024/02/10 02:06:31;;;;;;;2.50;1.00;;;;;;;9.79;100.00;95622.50;1224726;75;2926691;-63
2024/02/10 02:09:04;;;;;;;1.55;0.80;;;;;;;9.92;100.00;95623.78;1225257;75;2917280;-62
2024/02/10 02:11:49;;;;;;;2.05;1.10;;;;;;;9.95;100.00;95628.22;1225067;75;2913818;-66
2024/02/10 02:14:22;;;;;;;1.55;0.90;;;;;;;9.88;100.00;95629.53;1224423;75;2920082;-66
2024/02/10 02:16:55;;;;;;;1.65;0.80;;;;;;;9.94;100.00;95627.47;1225683;75;2923850;-63
2024/02/10 02:19:32;;;;;;;2.05;0.80;;;;;;;9.82;100.00;95624.16;1225084;75;2916392;-62
2024/02/10 02:22:05;;;;;;;1.45;0.90;;;;;;;9.77;100.00;95621.53;1225012;75;2920018;-64
2024/02/10 02:24:43;;;;;;;3.00;1.10;;;;;;;9.72;100.00;95620.34;1224882;75;2925516;-63
2024/02/10 02:27:16;;;;;;;1.25;0.90;;;;;;;9.86;100.00;95615.69;1224583;75;2922871;-65
2024/02/10 02:29:50;;;;;;;1.65;0.90;;;;;;;9.86;100.00;95612.19;1224533;75;2929242;-64
2024/02/10 02:32:23;;;;;;;1.70;0.85;;;;;;;9.95;100.00;95614.53;1225518;75;2919378;-63
2024/02/10 02:34:57;;;;;;;3.05;1.10;;;;;;;9.80;100.00;95615.75;1225144;75;2912814;-63
2024/02/10 02:37:32;;;;;;;1.25;0.60;;;;;;;9.81;100.00;95621.94;1224761;75;2914999;-62
2024/02/10 02:40:09;;;;;;;1.40;1.00;;;;;;;9.68;100.00;95619.19;1225439;75;2916959;-64
2024/02/10 02:42:42;;;;;;;3.00;1.15;;;;;;;9.74;100.00;95619.81;1225395;75;2926846;-63
2024/02/10 02:45:15;;;;;;;1.75;0.80;;;;;;;9.75;100.00;95618.59;1225118;75;2944238;-64
2024/02/10 02:47:48;;;;;;;2.50;0.80;;;;;;;9.65;100.00;95612.03;1224818;75;2924059;-63
2024/02/10 02:50:24;;;;;;;1.45;0.90;;;;;;;9.76;100.00;95620.03;1225043;75;2919815;-63
2024/02/10 02:53:00;;;;;;;1.90;0.95;;;;;;;9.78;100.00;95618.25;1225446;75;2912022;-61
2024/02/10 02:55:35;;;;;;;1.05;0.80;;;;;;;9.82;100.00;95607.78;1224931;75;2917069;-64
2024/02/10 02:58:11;;;;;;;1.35;0.80;;;;;;;9.74;100.00;95614.34;1224529;75;2917485;-67
2024/02/10 03:00:43;;;;;;;1.40;1.00;;;;;;;9.82;100.00;95610.50;1225786;75;2925588;-65
2024/02/10 03:03:16;;;;;;;2.05;0.70;;;;;;;9.87;100.00;95608.22;1225766;83;2913502;-64
2024/02/10 03:05:49;;;;;;;1.10;0.60;;;;;;;9.82;100.00;95610.50;1225402;75;2918634;-63
2024/02/10 03:08:22;;;;;;;1.00;0.70;;;;;;;9.90;100.00;95613.38;1225669;75;2915988;-66
2024/02/10 03:10:58;;;;;;;0.80;0.40;;;;;;;9.77;100.00;95619.53;1224903;75;2918805;-61
2024/02/10 03:13:31;;;;;;;1.35;0.60;;;;;;;9.60;100.00;95613.59;1223666;75;2929413;-62
2024/02/10 03:16:04;;;;;;;2.05;0.90;;;;;;;9.69;100.00;95615.94;1226235;75;2841786;-63
2024/02/10 03:18:38;;;;;;;1.95;1.00;;;;;;;9.60;100.00;95610.84;1225599;75;2921889;-65
2024/02/10 03:21:11;;;;;;;2.20;1.10;;;;;;;9.51;100.00;95598.31;1224572;75;2924213;-63
2024/02/10 03:23:44;;;;;;;2.90;1.00;;;;;;;9.62;100.00;95594.69;1224017;75;2914300;-65
2024/02/10 03:26:20;;;;;;;1.85;1.00;;;;;;;9.72;100.00;95587.56;1225344;75;2922871;-63
2024/02/10 03:28:54;;;;;;;1.85;0.90;;;;;;;9.78;100.00;95588.22;1224849;75;2925388;-63
2024/02/10 03:31:27;;;;;;;1.25;0.80;;;;;;;9.61;100.00;95590.47;1224824;75;2936448;-61
2024/02/10 03:34:00;;;;;;;2.25;1.00;;;;;;;9.52;100.00;95596.31;1224343;75;2918999;-61
2024/02/10 03:36:33;;;;;;;2.05;0.70;;;;;;;9.25;100.00;95604.38;1223985;75;2914550;-63
2024/02/10 03:39:07;;;;;;;1.10;1.00;;;;;;;9.13;100.00;95598.31;1225916;75;2917371;-64
2024/02/10 03:41:42;;;;;;;2.15;1.10;;;;;;;9.05;100.00;95589.25;1224440;75;2926809;-63
2024/02/10 03:44:15;;;;;;;5.85;0.90;;;;;;;8.99;100.00;95596.75;1225289;75;2914080;-62
2024/02/10 03:46:49;;;;;;;2.20;0.90;;;;;;;9.09;100.00;95591.66;1224880;75;2919760;-63
2024/02/10 03:49:22;;;;;;;1.50;0.80;;;;;;;9.12;100.00;95596.13;1223733;75;2921188;-63
2024/02/10 03:51:54;;;;;;;1.10;0.70;;;;;;;8.74;100.00;95585.16;1225502;75;2913888;-59
2024/02/10 03:54:27;;;;;;;1.60;0.90;;;;;;;8.63;100.00;95577.84;1225107;75;2911302;-62
2024/02/10 03:57:03;;;;;;;0.90;0.80;;;;;;;8.66;100.00;95584.25;1224797;75;2926150;-64
2024/02/10 03:59:39;;;;;;;1.90;1.00;;;;;;;8.44;100.00;95594.16;1225400;75;2915332;-64
2024/02/10 04:02:11;;;;;;;3.80;1.00;;;;;;;8.27;100.00;95599.00;1225367;75;2919627;-63
2024/02/10 04:04:44;;;;;;;2.25;0.90;;;;;;;8.44;100.00;95588.72;1224978;75;2921172;-63
2024/02/10 04:07:18;;;;;;;0.70;0.70;;;;;;;8.58;100.00;95584.09;1225467;75;2914123;-63
2024/02/10 04:09:51;;;;;;;1.70;1.10;;;;;;;8.47;100.00;95584.97;1224661;75;2920044;-62
2024/02/10 04:12:26;;;;;;;1.50;0.90;;;;;;;8.10;100.00;95590.97;1225302;75;2920130;-67
2024/02/10 04:15:03;;;;;;;2.70;1.15;;;;;;;8.39;100.00;95580.56;1225188;75;2923172;-62
2024/02/10 04:17:36;;;;;;;2.40;1.00;;;;;;;8.30;100.00;95568.03;1226295;75;2912712;-62
2024/02/10 04:20:11;;;;;;;1.50;0.85;;;;;;;8.27;100.00;95558.13;1225022;75;2914212;-63
2024/02/10 04:22:45;;;;;;;1.55;1.05;;;;;;;8.29;100.00;95563.81;1225905;75;2921882;-63
2024/02/10 04:25:18;;;;;;;2.95;1.10;;;;;;;8.02;100.00;95569.00;1225396;75;2912509;-62
2024/02/10 04:27:53;;;;;;;2.55;1.40;;;;;;;7.78;100.00;95575.16;1224975;75;2922411;-61
2024/02/10 04:30:27;;;;;;;3.95;1.20;;;;;;;7.93;100.00;95574.06;1225019;75;2963940;-67
2024/02/10 04:32:59;;;;;;;1.25;0.95;;;;;;;7.90;100.00;95587.44;1224910;75;2916622;-61
2024/02/10 04:35:32;;;;;;;1.75;0.80;;;;;;;8.08;100.00;95598.94;1225488;75;2920010;-65
2024/02/10 04:38:08;;;;;;;1.35;0.95;;;;;;;8.05;100.00;95595.22;1225958;75;2919225;-62
2024/02/10 04:40:42;;;;;;;0.90;0.70;;;;;;;8.20;100.00;95583.22;1225189;75;2916332;-63
2024/02/10 04:43:17;;;;;;;1.25;0.80;;;;;;;8.22;100.00;95576.00;1225658;75;2916713;-62
2024/02/10 04:45:51;;;;;;;0.70;0.70;;;;;;;8.14;100.00;95574.38;1225210;75;2919365;-60
2024/02/10 04:48:25;;;;;;;1.20;0.95;;;;;;;8.06;100.00;95583.09;1225688;75;2916215;-62
2024/02/10 04:50:59;;;;;;;2.20;1.20;;;;;;;8.48;100.00;95572.78;1224487;75;2921555;-64
2024/02/10 04:53:32;;;;;;;0.90;0.70;;;;;;;9.26;100.00;95562.19;1224637;75;2927491;-61
2024/02/10 04:56:07;;;;;;;1.40;0.90;;;;;;;9.23;100.00;95562.47;1225253;75;2918030;-65
2024/02/10 04:58:42;;;;;;;2.25;0.60;;;;;;;9.28;100.00;95564.38;1225249;75;2927355;-63
2024/02/10 05:01:15;;;;;;;1.15;0.75;;;;;;;9.24;100.00;95572.88;1224901;75;2914207;-61
2024/02/10 05:03:47;;;;;;;0.65;0.65;;;;;;;9.29;100.00;95574.78;1224911;75;2942519;-64
2024/02/10 05:06:20;;;;;;;1.45;0.90;;;;;;;9.12;100.00;95579.75;1224925;75;2917261;-66
2024/02/10 05:08:54;;;;;;;1.45;0.80;;;;;;;9.08;100.00;95573.84;1225429;75;2930040;-63
2024/02/10 05:11:28;;;;;;;1.75;0.90;;;;;;;9.03;100.00;95574.66;1225751;75;2920896;-63
2024/02/10 05:14:04;;;;;;;1.05;0.70;;;;;;;8.89;100.00;95580.00;1223946;75;2950854;-61
2024/02/10 05:16:37;;;;;;;0.75;0.50;;;;;;;8.91;100.00;95576.78;1225253;75;2922799;-63
2024/02/10 05:19:10;;;;;;;3.15;0.80;;;;;;;8.81;100.00;95575.66;1224942;75;2916350;-61
2024/02/10 05:21:43;;;;;;;2.70;1.10;;;;;;;8.89;100.00;95577.28;1225078;75;2916034;-67
2024/02/10 05:24:15;;;;;;;2.10;0.80;;;;;;;9.05;100.00;95570.16;1224191;75;2914340;-64
2024/02/10 05:26:49;;;;;;;1.45;0.90;;;;;;;9.12;100.00;95577.75;1224770;75;2919411;-63
2024/02/10 05:29:25;;;;;;;1.10;0.85;;;;;;;9.17;100.00;95587.84;1225206;75;2927174;-63
2024/02/10 05:31:58;;;;;;;1.70;0.90;;;;;;;9.23;100.00;95593.22;1224442;75;2933176;-64
2024/02/10 05:34:31;;;;;;;2.35;0.90;;;;;;;9.22;100.00;95586.31;1224549;75;2924939;-64
2024/02/10 05:37:04;;;;;;;1.40;0.85;;;;;;;9.05;100.00;95594.72;1224703;75;2917843;-61
2024/02/10 05:39:36;;;;;;;1.30;0.70;;;;;;;9.00;100.00;95587.34;1225291;75;2912635;-66
2024/02/10 05:42:10;;;;;;;0.80;0.60;;;;;;;8.87;100.00;95592.69;1224650;75;2924681;-63
2024/02/10 05:44:46;;;;;;;1.20;1.10;;;;;;;8.87;100.00;95589.97;1224725;75;2927246;-63
2024/02/10 05:47:19;;;;;;;1.35;0.95;;;;;;;8.58;100.00;95594.25;1224709;75;2924374;-62
2024/02/10 05:49:51;;;;;;;2.40;0.85;;;;;;;8.68;100.00;95593.41;1223658;75;2930637;-62
2024/02/10 05:52:24;;;;;;;2.00;0.95;;;;;;;8.64;100.00;95590.22;1224677;75;2914097;-64
2024/02/10 05:54:57;;;;;;;1.30;1.00;;;;;;;9.05;100.00;95605.63;1224835;75;2916805;-64
2024/02/10 05:57:30;;;;;;;0.90;0.75;;;;;;;9.07;100.00;95608.59;1224559;75;2923660;-62
2024/02/10 06:00:09;;;;;;;2.65;1.35;;;;;;;9.10;100.00;95615.00;1224731;75;2928184;-65
2024/02/10 06:02:43;;;;;;;3.05;0.90;;;;;;;9.15;100.00;95619.66;1224341;75;2921705;-63
2024/02/10 06:05:18;;;;;;;0.90;0.70;;;;;;;8.87;100.00;95626.16;1225164;75;2921970;-65
2024/02/10 06:07:52;;;;;;;2.10;1.10;;;;;;;8.82;100.00;95626.25;1224563;75;2915978;-63
2024/02/10 06:10:25;;;;;;;1.55;0.60;;;;;;;8.70;100.00;95633.81;1225028;75;2913848;-61
2024/02/10 06:12:58;;;;;;;1.65;0.90;;;;;;;8.32;100.00;95628.19;1223378;75;2913423;-63
2024/02/10 06:15:34;;;;;;;1.40;0.90;;;;;;;8.43;100.00;95624.66;1224358;75;2914871;-63
2024/02/10 06:18:08;;;;;;;1.10;0.80;;;;;;;8.03;100.00;95635.91;1224554;75;2924527;-66
2024/02/10 06:20:41;;;;;;;1.95;0.90;;;;;;;8.12;100.00;95637.53;1224250;75;2920132;-61
2024/02/10 06:23:16;;;;;;;1.45;0.90;;;;;;;7.97;100.00;95648.09;1224683;75;2923073;-61
2024/02/10 06:25:51;;;;;;;1.65;0.80;;;;;;;7.44;100.00;95650.91;1224277;75;2926702;-67
2024/02/10 06:28:24;;;;;;;1.65;1.30;;;;;;;7.31;100.00;95658.88;1224596;75;2917931;-62
2024/02/10 06:31:00;;;;;;;1.30;1.10;;;;;;;7.51;100.00;95668.69;1225353;75;2910505;-64
2024/02/10 06:33:33;;;;;;;1.05;0.80;;;;;;;7.54;100.00;95664.94;1224563;75;2915499;-65
2024/02/10 06:36:07;;;;;;;1.75;1.40;;;;;;;7.47;100.00;95669.69;1225218;75;2921532;-63
2024/02/10 06:38:42;;;;;;;8.45;6.15;;;;;;;7.18;100.00;95668.34;1224004;75;2920840;-63
2024/02/10 06:41:15;;;;;;;6.05;4.35;;;;;;;7.40;100.00;95669.47;1225358;75;2917399;-64
2024/02/10 06:43:47;;;;;;;4.95;2.75;;;;;;;6.57;100.00;95670.00;1224957;75;2913993;-65
2024/02/10 06:46:23;;;;;;;4.30;2.90;;;;;;;6.36;100.00;95676.97;1224677;75;2929455;-62
2024/02/10 06:48:56;;;;;;;4.15;2.55;;;;;;;6.94;100.00;95677.09;1224613;75;2925557;-65
2024/02/10 06:51:28;;;;;;;8.75;6.30;;;;;;;7.23;100.00;95688.59;1224579;75;2921502;-65
2024/02/10 06:54:02;;;;;;;6.90;4.30;;;;;;;7.19;100.00;95688.88;1224384;75;2920243;-65
2024/02/10 06:56:35;;;;;;;4.50;3.15;;;;;;;7.56;100.00;95686.97;1225051;75;2914706;-65
2024/02/10 06:59:08;;;;;;;4.45;3.20;;;;;;;7.96;100.00;95685.50;1224395;75;2930875;-59
2024/02/10 07:01:46;;;;;;;4.40;2.65;;;;;;;8.48;100.00;95695.50;1224844;75;2921971;-63
2024/02/10 07:04:19;;;;;;;2.40;1.60;;;;;;;8.51;100.00;95691.00;1224921;75;2917984;-63
2024/02/10 07:06:53;;;;;;;4.60;2.85;;;;;;;8.11;100.00;95685.88;1224405;75;2920414;-63
2024/02/10 07:09:26;;;;;;;3.50;2.00;;;;;;;8.39;100.00;95687.63;1225200;75;2916882;-63
2024/02/10 07:11:59;;;;;;;2.00;1.70;;;;;;;8.50;100.00;95698.47;1224724;75;2922229;-64
2024/02/10 07:14:33;;;;;;;3.15;2.00;;;;;;;10.21;100.00;95696.63;1223344;75;2923319;-65
2024/02/10 07:17:09;;;;;;;4.85;2.15;;;;;;;12.36;79.69;95695.97;1224718;75;2932317;-63
2024/02/10 07:19:47;;;;;;;2.95;1.70;;;;;;;13.57;73.86;95697.34;1224724;75;2919274;-60
2024/02/10 07:22:19;;;;;;;2.45;1.60;;;;;;;13.21;73.48;95695.31;1224254;75;2920560;-61
2024/02/10 07:24:52;;;;;;;4.60;1.50;;;;;;;11.06;85.53;95697.97;1224268;75;2915663;-64
2024/02/10 07:27:26;;;;;;;3.65;1.95;;;;;;;12.02;82.27;95694.00;1224121;75;2919519;-66
2024/02/10 07:29:59;;;;;;;5.05;1.55;;;;;;;15.59;65.39;95689.31;1223873;75;2921309;-62
2024/02/10 07:32:35;;;;;;;2.75;1.10;;;;;;;17.74;58.76;95690.38;1224093;75;2927468;-65
2024/02/10 07:35:06;;;;;;;4.65;1.75;;;;;;;18.07;56.44;95685.38;1224008;75;2933816;-62
2024/02/10 07:37:39;;;;;;;3.65;2.00;;;;;;;18.31;55.16;95683.03;1224131;75;2926679;-62
2024/02/10 07:40:13;;;;;;;2.80;1.10;;;;;;;17.98;54.92;95679.78;1224079;75;2924415;-64
2024/02/10 07:42:46;;;;;;;6.50;1.20;;;;;;;19.01;52.49;95683.41;1224102;75;2926455;-65
2024/02/10 07:45:19;;;;;;;4.40;1.40;;;;;;;19.59;50.30;95682.69;1223642;75;2927830;-65
2024/02/10 07:47:55;;;;;;;7.20;1.65;;;;;;;19.11;51.54;95692.47;1223789;75;2927535;-62
2024/02/10 07:50:28;;;;;;;2.00;1.10;;;;;;;20.13;49.73;95679.59;1223371;75;2927838;-63
2024/02/10 07:53:01;;;;;;;4.00;1.20;;;;;;;19.37;49.89;95687.38;1224532;75;2927120;-62
2024/02/10 07:55:37;;;;;;;1.85;1.00;;;;;;;16.56;55.56;95687.84;1224970;75;2917784;-64
2024/02/10 07:58:12;;;;;;;1.60;0.90;;;;;;;14.80;58.33;95688.56;1223628;75;2928933;-61
2024/02/10 08:00:46;;;;;;;3.50;1.00;;;;;;;15.17;60.22;95692.53;1220997;75;3121457;-63
2024/02/10 08:03:22;;;;;;;5.25;1.35;;;;;;;15.27;60.66;95684.44;1224767;75;2918940;-65
2024/02/10 08:05:55;;;;;;;4.95;1.35;;;;;;;14.36;64.72;95681.22;1224246;75;2924179;-66
2024/02/10 08:08:28;;;;;;;2.60;1.20;;;;;;;14.04;64.28;95671.44;1223568;75;2927404;-66
2024/02/10 08:11:01;;;;;;;4.80;1.35;;;;;;;14.10;64.28;95673.28;1223047;75;2942379;-63
2024/02/10 08:13:34;;;;;;;3.65;1.60;;;;;;;15.29;62.07;95677.06;1222597;75;2932510;-64
2024/02/10 08:16:09;;;;;;;4.75;1.30;;;;;;;16.43;59.36;95671.56;1224018;75;2926744;-66
2024/02/10 08:18:45;;;;;;;3.80;1.20;;;;;;;17.33;55.69;95669.84;1223811;75;2917823;-63
2024/02/10 08:21:18;;;;;;;5.20;0.90;;;;;;;15.82;58.07;95667.16;1224048;75;2920121;-62
2024/02/10 08:23:52;;;;;;;2.25;1.00;;;;;;;16.04;57.46;95670.34;1223854;75;2921206;-63
2024/02/10 08:26:25;;;;;;;3.20;0.90;;;;;;;15.80;57.59;95674.53;1224558;75;2913505;-65
2024/02/10 08:28:59;;;;;;;4.20;1.20;;;;;;;16.21;58.45;95667.69;1223983;75;2918021;-66
2024/02/10 08:31:34;;;;;;;4.40;1.10;;;;;;;16.66;56.73;95654.06;1223953;75;2925292;-65
2024/02/10 08:34:09;;;;;;;1.45;0.85;;;;;;;16.44;57.15;95650.94;1223999;83;2910283;-66
2024/02/10 08:36:42;;;;;;;2.75;1.00;;;;;;;15.68;58.56;95652.88;1224341;75;2915131;-63
2024/02/10 08:39:18;;;;;;;2.55;1.35;;;;;;;15.14;58.70;95633.03;1224601;75;2924239;-60
2024/02/10 08:41:51;;;;;;;3.60;1.30;;;;;;;14.39;61.14;95640.84;1223560;75;2920126;-63
2024/02/10 08:44:25;;;;;;;3.20;1.10;;;;;;;14.76;61.28;95644.13;1224187;75;2911302;-63
2024/02/10 08:46:59;;;;;;;2.40;1.10;;;;;;;14.76;60.70;95649.66;1223931;75;2925631;-63
2024/02/10 08:49:35;;;;;;;3.40;1.20;;;;;;;14.57;61.02;95639.75;1223619;75;2931650;-64
2024/02/10 08:52:11;;;;;;;5.40;1.80;;;;;;;14.49;61.43;95645.22;1224384;75;2921776;-64
2024/02/10 08:54:44;;;;;;;2.90;1.15;;;;;;;14.80;61.40;95659.00;1224668;75;2918641;-65
2024/02/10 08:57:19;;;;;;;3.50;0.95;;;;;;;15.25;60.52;95645.66;1224682;75;2921504;-65
2024/02/10 08:59:52;;;;;;;3.15;1.05;;;;;;;15.77;58.77;95646.75;1223973;75;2917484;-64
2024/02/10 09:02:27;;;;;;;4.25;1.75;;;;;;;15.66;58.45;95649.94;1224252;75;2922432;-60
2024/02/10 09:05:03;;;;;;;2.55;0.90;;;;;;;16.04;59.02;95657.28;1223957;75;2927192;-65
2024/02/10 09:07:35;;;;;;;3.45;1.30;;;;;;;16.11;59.64;95666.81;1225379;75;2917269;-64
2024/02/10 09:10:11;;;;;;;2.20;1.15;;;;;;;17.08;56.34;95662.38;1224002;75;2921730;-61
2024/02/10 09:12:44;;;;;;;9.70;3.90;;;;;;;16.74;56.93;95665.78;1222725;75;2920345;-65
2024/02/10 09:15:17;;;;;;;5.70;3.25;;;;;;;17.34;55.10;95660.25;1221960;75;2921719;-63
2024/02/10 09:17:50;;;;;;;5.40;3.05;;;;;;;17.78;54.16;95659.53;1222298;75;2926711;-65
2024/02/10 09:20:31;;;;;;;5.35;1.85;;;;;;;17.14;54.70;95667.66;1224498;75;2916951;-65
2024/02/10 09:23:03;;;;;;;3.35;1.65;;;;;;;17.12;55.43;95662.69;1225010;75;2932232;-65
2024/02/10 09:25:38;;;;;;;2.50;1.30;;;;;;;17.06;54.97;95653.91;1224497;75;2925258;-66
2024/02/10 09:28:11;;;;;;;2.40;1.00;;;;;;;17.11;55.40;95647.41;1223635;75;2919833;-64
2024/02/10 09:30:45;;;;;;;4.40;1.30;;;;;;;16.97;55.33;95646.25;1224657;75;2914273;-62
2024/02/10 09:33:26;;;;;;;2.30;1.05;;;;;;;16.93;54.58;95643.16;1224549;75;2919266;-64
2024/02/10 09:36:01;;;;;;;2.00;1.20;;;;;;;17.11;54.78;95639.09;1224658;75;2924928;-64
2024/02/10 09:38:34;;;;;;;3.35;1.30;;;;;;;17.02;55.50;95648.03;1224686;75;2919517;-64
2024/02/10 09:41:07;;;;;;;2.00;0.85;;;;;;;16.98;55.05;95647.72;1224754;75;2912179;-64
2024/02/10 09:43:42;;;;;;;4.20;1.80;;;;;;;16.32;57.20;95644.41;1224339;75;2918173;-63
2024/02/10 09:46:15;;;;;;;4.00;1.35;;;;;;;17.64;53.63;95648.09;1223706;75;2915602;-62
2024/02/10 09:48:51;;;;;;;2.35;1.15;;;;;;;17.49;53.87;95648.28;1224469;75;2923823;-65
2024/02/10 09:51:27;;;;;;;4.55;1.60;;;;;;;17.32;54.47;95644.22;1225285;75;2917397;-66
2024/02/10 09:54:00;;;;;;;5.30;1.40;;;;;;;18.64;51.64;95650.19;1224204;75;2929425;-64
2024/02/10 09:56:35;;;;;;;2.70;1.30;;;;;;;18.50;51.27;95640.81;1224498;75;2913763;-62
2024/02/10 09:59:14;;;;;;;2.10;1.20;;;;;;;19.56;50.41;95645.75;1224607;75;2918000;-64
2024/02/10 10:01:48;;;;;;;7.90;1.30;;;;;;;19.19;50.19;95645.16;1224656;75;2922548;-66
2024/02/10 10:04:21;;;;;;;2.25;1.00;;;;;;;18.81;49.93;95648.63;1224566;75;2932128;-62
2024/02/10 10:06:56;;;;;;;3.10;1.40;;;;;;;19.49;49.35;95643.84;1224944;75;2918962;-65
2024/02/10 10:09:33;;;;;;;2.95;1.00;;;;;;;20.07;48.43;95654.16;1224409;75;2922793;-65
2024/02/10 10:12:12;;;;;;;3.10;1.20;;;;;;;19.15;49.97;95650.44;1225275;75;2919395;-65
2024/02/10 10:14:47;;;;;;;3.70;1.75;;;;;;;18.56;51.18;95657.16;1224509;75;2923341;-63
2024/02/10 10:17:20;;;;;;;2.80;0.95;;;;;;;18.54;51.09;95646.63;1225153;75;2920040;-66
2024/02/10 10:20:05;;;;;;;6.35;1.95;;;;;;;17.01;53.70;95652.84;1225206;75;2919797;-64
2024/02/10 10:22:41;;;;;;;2.85;1.20;;;;;;;17.85;52.60;95642.84;1223825;75;2932218;-62
2024/02/10 10:25:14;;;;;;;2.20;1.25;;;;;;;17.14;54.17;95643.50;1224888;75;2909618;-64
2024/02/10 10:27:47;;;;;;;6.20;1.50;;;;;;;16.59;55.51;95647.31;1224400;75;2922538;-66
2024/02/10 10:30:25;;;;;;;3.15;1.20;;;;;;;16.81;55.62;95642.91;1223743;75;2928111;-68
2024/02/10 10:32:59;;;;;;;3.85;1.55;;;;;;;16.21;56.03;95633.78;1224051;75;2920084;-66
2024/02/10 10:35:34;;;;;;;4.00;1.80;;;;;;;15.92;56.47;95642.44;1223974;75;2920545;-66
2024/02/10 10:38:11;;;;;;;4.85;1.85;;;;;;;15.91;58.00;95644.47;1223930;75;2924953;-65
2024/02/10 10:40:45;;;;;;;6.65;2.15;;;;;;;15.21;57.03;95642.56;1224721;75;2905051;-63
2024/02/10 10:43:20;;;;;;;5.75;1.75;;;;;;;15.27;57.55;95643.84;1224176;75;2928411;-62
2024/02/10 10:45:55;;;;;;;7.10;2.00;;;;;;;15.16;57.49;95644.25;1223881;75;2907935;-63
2024/02/10 10:48:28;;;;;;;5.55;2.40;;;;;;;15.02;57.82;95637.47;1223507;75;2923250;-61
2024/02/10 10:51:02;;;;;;;7.45;2.65;;;;;;;14.97;57.55;95636.38;1223471;75;2931231;-66
2024/02/10 10:53:41;;;;;;;5.60;1.80;;;;;;;14.83;58.06;95633.09;1224149;75;2925455;-67
2024/02/10 10:56:19;;;;;;;6.90;2.30;;;;;;;15.18;57.48;95616.13;1224833;75;2914402;-68
2024/02/10 10:58:58;;;;;;;6.00;2.30;;;;;;;14.82;57.48;95620.63;1223107;75;2925058;-67
2024/02/10 11:01:32;;;;;;;4.70;1.60;;;;;;;14.99;57.41;95606.25;1224200;75;2924868;-68
2024/02/10 11:04:07;;;;;;;3.75;1.30;;;;;;;15.28;57.24;95608.72;1225329;75;2920699;-62
2024/02/10 11:06:40;;;;;;;5.70;2.20;;;;;;;15.09;57.89;95618.16;1224073;75;2914505;-66
2024/02/10 11:09:25;;;;;;;7.80;1.85;;;;;;;14.97;58.17;95619.13;1225465;75;2910585;-65
2024/02/10 11:11:59;;;;;;;5.70;2.80;;;;;;;14.98;57.28;95606.81;1224542;75;2921395;-65
2024/02/10 11:14:32;;;;;;;3.05;1.60;;;;;;;15.05;57.09;95609.53;1224260;75;2918508;-66
2024/02/10 11:17:15;;;;;;;6.60;1.95;;;;;;;14.99;57.47;95600.03;1224416;75;2916318;-65
2024/02/10 11:20:03;;;;;;;8.10;2.15;;;;;;;14.87;57.98;95611.44;1224586;75;2925063;-63
2024/02/10 11:22:39;;;;;;;4.00;1.90;;;;;;;14.94;58.10;95609.22;1224209;75;2921326;-63
2024/02/10 11:25:22;;;;;;;9.15;2.05;;;;;;;14.66;57.89;95611.66;1224069;75;2927628;-63
2024/02/10 11:27:58;;;;;;;5.85;1.75;;;;;;;14.93;57.42;95607.75;1224656;75;2926652;-62
2024/02/10 11:30:34;;;;;;;6.20;2.05;;;;;;;15.19;57.08;95598.28;1223808;75;2934405;-66
2024/02/10 11:33:08;;;;;;;7.60;2.15;;;;;;;15.29;56.24;95597.13;1224333;75;2919455;-63
2024/02/10 11:35:41;;;;;;;7.25;1.90;;;;;;;15.63;56.03;95600.66;1219031;75;3112580;-66
2024/02/10 11:38:14;;;;;;;8.30;2.20;;;;;;;15.23;56.51;95580.09;1224299;75;2925001;-64
2024/02/10 11:40:52;;;;;;;7.40;2.00;;;;;;;15.75;55.67;95576.88;1224279;75;2917141;-64
2024/02/10 11:43:26;;;;;;;8.50;2.20;;;;;;;15.35;56.05;95577.66;1224149;75;2921448;-61
2024/02/10 11:45:59;;;;;;;6.20;2.20;;;;;;;15.64;55.25;95586.31;1224246;75;2926040;-66
2024/02/10 11:48:33;;;;;;;6.55;2.20;;;;;;;16.03;54.60;95575.06;1225193;75;2923658;-66